Flight Track Log - Related Links

Times and Time Zones

All times are in EDT time to prevent confusion due to time zone crossing. See the SWA3236 flight status page for this flight to view local times or setup timezone preferences in your user account.

Time Position Orientation Groundspeed Altitude Reporting Facility
EDT Latitude Longitude Course Direction KTS MPH feet Rate Location/Type
Wed 09:41:23 AM 28.0000 -82.5333 360° North 151 174 1,600  Level Tampa TRACON
Wed 09:42:35 AM 28.0667 -82.5333 360° North 224 258 3,600 2,339 Climbing Tampa TRACON
Wed 09:44:20 AM 28.1872 -82.5817 341° North 285 328 8,500 2,836 Climbing Jacksonville Center
Wed 09:45:20 AM 28.2603 -82.6239 333° Northwest 285 328 11,400 2,967 Climbing Jacksonville Center
Wed 09:47:20 AM 28.4336 -82.7272 332° Northwest 337 388 17,400 2,867 Climbing Jacksonville Center
Wed 09:48:20 AM 28.5233 -82.7839 331° Northwest 348 400 20,000 2,700 Climbing Jacksonville Center
Wed 09:49:20 AM 28.6217 -82.8217 341° North 361 415 22,800 2,300 Climbing Jacksonville Center
Wed 09:50:20 AM 28.7300 -82.8475 348° North 377 434 24,600 1,600 Climbing Jacksonville Center
Wed 09:51:20 AM 28.8428 -82.8761 347° North 384 442 26,000 1,500 Climbing Jacksonville Center
Wed 09:52:20 AM 28.9472 -82.8997 349° North 413 475 27,600 1,600 Climbing Jacksonville Center
Wed 09:53:20 AM 29.0642 -82.9283 348° North 423 487 29,200 1,500 Climbing Jacksonville Center
Wed 09:54:20 AM 29.1892 -82.9592 348° North 435 501 30,600 1,550 Climbing Jacksonville Center
Wed 09:55:20 AM 29.3125 -82.9878 349° North 440 506 32,300 1,650 Climbing Jacksonville Center
Wed 09:56:20 AM 29.4333 -83.0142 349° North 449 517 33,900 850 Climbing Jacksonville Center
Wed 09:57:20 AM 29.5586 -83.0431 349° North 449 517 34,000 300 Climbing Jacksonville Center
Wed 09:58:20 AM 29.6775 -83.0886 342° North 449 517 34,500 1,000 Climbing Jacksonville Center
Wed 09:59:20 AM 29.7861 -83.1367 339° North 432 497 36,000 750 Climbing Jacksonville Center
Wed 10:00:20 AM 29.8925 -83.1850 339° North 418 481 36,000  Level Jacksonville Center
Wed 10:01:20 AM 30.0008 -83.2381 337° Northwest 418 481 36,000  Level Jacksonville Center
Wed 10:02:20 AM 30.1094 -83.2886 338° Northwest 413 475 36,000  Level Jacksonville Center
Wed 10:03:20 AM 30.2197 -83.3397 338° Northwest 418 481 36,000  Level Jacksonville Center
Wed 10:04:20 AM 30.3239 -83.3858 339° North 413 475 36,000  Level Jacksonville Center
Wed 10:05:20 AM 30.4325 -83.4394 337° Northwest 413 475 36,000  Level Jacksonville Center
Wed 10:06:20 AM 30.5408 -83.4883 339° North 413 475 36,000  Level Jacksonville Center
Wed 10:07:20 AM 30.6511 -83.5397 338° Northwest 418 481 36,000  Level Jacksonville Center
Wed 10:08:20 AM 30.7614 -83.5936 337° Northwest 418 481 36,000  Level Jacksonville Center
Wed 10:09:20 AM 30.8739 -83.6453 338° Northwest 418 481 36,000  Level Jacksonville Center
Wed 10:10:20 AM 30.9822 -83.6994 337° Northwest 418 481 36,000  Level Jacksonville Center
Wed 10:11:20 AM 31.0947 -83.7539 337° Northwest 423 487 36,000  Level Jacksonville Center
Wed 10:12:20 AM 31.2050 -83.8083 337° Northwest 423 487 36,000  Level Jacksonville Center
Wed 10:13:20 AM 31.3172 -83.8606 338° Northwest 428 493 36,000  Level Jacksonville Center
Wed 10:14:34 AM 31.4522 -83.9269 337° Northwest 438 504 36,000  Level Atlanta Center
Wed 10:15:34 AM 31.5692 -83.9731 341° North 433 498 36,000  Level Atlanta Center
Wed 10:16:34 AM 31.6903 -83.9997 349° North 433 498 36,000  Level Atlanta Center
Wed 10:17:34 AM 31.8239 -84.0292 349° North 438 504 36,000  Level Atlanta Center
Wed 10:18:34 AM 31.9428 -84.0536 350° North 438 504 36,000  Level Atlanta Center
Wed 10:19:34 AM 32.0639 -84.0806 349° North 438 504 36,000  Level Atlanta Center
Wed 10:20:34 AM 32.1850 -84.1075 349° North 438 504 36,000  Level Atlanta Center
Wed 10:21:34 AM 32.3039 -84.1347 349° North 432 497 36,000  Level Atlanta Center
Wed 10:22:34 AM 32.4250 -84.1619 349° North 432 497 36,000  Level Atlanta Center
Wed 10:23:34 AM 32.5439 -84.1892 349° North 432 497 36,000  Level Atlanta Center
Wed 10:24:34 AM 32.6650 -84.2139 350° North 432 497 36,000  Level Atlanta Center
Wed 10:25:34 AM 32.7817 -84.2439 348° North 432 497 36,000  Level Atlanta Center
Wed 10:26:34 AM 32.8986 -84.2714 349° North 432 497 36,000  Level Atlanta Center
Wed 10:27:34 AM 33.0175 -84.2989 349° North 432 497 36,000  Level Atlanta Center
Wed 10:28:34 AM 33.1344 -84.3342 346° North 427 491 36,000  Level Atlanta Center
Wed 10:29:34 AM 33.2428 -84.3889 337° Northwest 422 486 36,000  Level Atlanta Center
Wed 10:30:34 AM 33.3489 -84.4417 337° Northwest 416 479 36,000  Level Atlanta Center
Wed 10:31:34 AM 33.4553 -84.4919 338° Northwest 416 479 36,000  Level Atlanta Center
Wed 10:32:34 AM 33.5678 -84.5200 348° North 416 479 36,000  Level Atlanta Center
Wed 10:33:34 AM 33.6742 -84.5456 349° North 412 474 36,000  Level Atlanta Center
Wed 10:34:34 AM 33.7869 -84.5636 352° North 412 474 36,000  Level Atlanta Center
Wed 10:35:34 AM 33.9017 -84.5919 348° North 412 474 36,000  Level Atlanta Center
Wed 10:36:34 AM 34.0183 -84.6203 349° North 412 474 36,000  Level Atlanta Center
Wed 10:37:34 AM 34.1497 -84.6486 350° North 412 474 36,000  Level Atlanta Center
Wed 10:38:34 AM 34.2644 -84.6722 350° North 420 483 36,000  Level Atlanta Center
Wed 10:39:34 AM 34.3789 -84.6983 349° North 420 483 36,000  Level Atlanta Center
Wed 10:40:34 AM 34.4936 -84.7242 349° North 415 478 36,000  Level Atlanta Center
Wed 10:41:34 AM 34.6083 -84.7506 349° North 415 478 36,000  Level Atlanta Center
Wed 10:42:34 AM 34.7083 -84.7767 348° North 408 470 36,000  Level Atlanta Center
Wed 10:43:34 AM 34.8250 -84.8003 351° North 414 476 36,000  Level Atlanta Center
Wed 10:44:34 AM 34.9417 -84.8267 349° North 414 476 36,000  Level Atlanta Center
Wed 10:45:34 AM 35.0564 -84.8533 349° North 414 476 36,000  Level Atlanta Center
Wed 10:46:34 AM 35.1731 -84.8797 350° North 414 476 36,000  Level Atlanta Center
Wed 10:47:34 AM 35.2856 -84.9064 349° North 414 476 36,000  Level Atlanta Center
Wed 10:48:34 AM 35.3981 -84.9331 349° North 409 471 36,000  Level Atlanta Center
Wed 10:49:34 AM 35.5103 -84.9572 350° North 409 471 36,000  Level Atlanta Center
Wed 10:51:17 AM 35.7175 -85.0042 350° North 414 476 36,000  Level Indianapolis Center
Wed 10:52:19 AM 35.8311 -85.0306 349° North 414 476 36,000  Level Indianapolis Center
Wed 10:53:21 AM 35.9436 -85.0567 349° North 413 475 36,000  Level Indianapolis Center
Wed 10:54:23 AM 36.0628 -85.0850 349° North 412 474 36,000  Level Indianapolis Center
Wed 10:55:25 AM 36.1747 -85.1114 349° North 409 471 36,000  Level Indianapolis Center
Wed 10:56:27 AM 36.2867 -85.1372 349° North 409 471 36,000  Level Indianapolis Center
Wed 10:57:29 AM 36.3989 -85.1636 349° North 409 471 36,000  Level Indianapolis Center
Wed 10:58:31 AM 36.5089 -85.1906 349° North 408 470 36,000  Level Indianapolis Center
Wed 10:59:33 AM 36.6211 -85.2158 350° North 407 468 36,000  Level Indianapolis Center
Wed 11:00:35 AM 36.7533 -85.2492 349° North 407 468 36,000 -97 Level Indianapolis Center
Wed 11:01:37 AM 36.8644 -85.2750 349° North 407 468 35,800 -581 Descending Indianapolis Center
Wed 11:02:39 AM 36.9775 -85.3019 349° North 407 468 34,800 -976 Descending Indianapolis Center
Wed 11:03:40 AM 37.0917 -85.3286 349° North 411 473 33,800 -927 Descending Indianapolis Center
Wed 11:04:42 AM 37.2061 -85.3569 349° North 415 478 32,900 -871 Descending Indianapolis Center
Wed 11:05:44 AM 37.3200 -85.3853 349° North 418 481 32,000 -435 Descending Indianapolis Center
Wed 11:06:46 AM 37.4344 -85.4142 349° North 418 481 32,000  Level Indianapolis Center
Wed 11:07:48 AM 37.5725 -85.4456 350° North 418 481 32,000  Level Indianapolis Center
Wed 11:08:50 AM 37.6711 -85.4722 348° North 418 481 32,000  Level Indianapolis Center
Wed 11:09:52 AM 37.7872 -85.4997 349° North 418 481 32,000  Level Indianapolis Center
Wed 11:10:54 AM 37.9264 -85.5333 349° North 419 482 32,000 -435 Level Indianapolis Center
Wed 11:11:56 AM 38.0419 -85.5636 348° North 421 484 31,100 -976 Descending Indianapolis Center
Wed 11:12:57 AM 38.1575 -85.5850 352° North 420 483 30,000 -1,024 Descending Indianapolis Center
Wed 11:13:59 AM 38.2736 -85.5975 355° North 420 483 29,000 -726 Descending Indianapolis Center
Wed 11:15:01 AM 38.3878 -85.6114 355° North 417 480 28,500 -1,548 Descending Indianapolis Center
Wed 11:16:03 AM 38.5028 -85.6256 354° North 416 479 25,800 -2,177 Descending Indianapolis Center
Wed 11:17:05 AM 38.6100 -85.6392 354° North 396 456 24,000 -1,645 Descending Indianapolis Center
Wed 11:18:07 AM 38.7236 -85.6606 352° North 371 427 22,400 -1,887 Descending Indianapolis Center
Wed 11:19:09 AM 38.8239 -85.6778 352° North 367 422 20,100 -2,226 Descending Indianapolis Center
Wed 11:20:11 AM 38.9231 -85.6947 352° North 365 420 17,800 -2,081 Descending Indianapolis Center
Wed 11:21:13 AM 39.0183 -85.7131 351° North 353 406 15,800 -1,902 Descending Indianapolis Center
Wed 11:22:14 AM 39.1256 -85.7319 352° North 332 382 13,900 -1,366 Descending Indianapolis Center
Wed 11:23:16 AM 39.2133 -85.7481 352° North 323 372 13,000 -968 Descending Indianapolis Center
Wed 11:24:18 AM 39.2992 -85.7644 352° North 320 368 11,900 -968 Descending Indianapolis Center
Wed 11:25:20 AM 39.3644 -85.8289 323° Northwest 304 350 11,000 -919 Descending Indianapolis Center
Wed 11:26:22 AM 39.4256 -85.9017 317° Northwest 304 350 10,000 -774 Descending Indianapolis Center
Wed 11:27:24 AM 39.4847 -85.9717 318° Northwest 296 341 9,400 -968 Descending Indianapolis Center
Wed 11:28:26 AM 39.5486 -86.0481 317° Northwest 269 310 8,000 -677 Descending Indianapolis Center
Wed 11:29:28 AM 39.6019 -86.1114 318° Northwest 264 304 8,000  Level Indianapolis Center
Wed 11:30:30 AM 39.6594 -86.1425 337° Northwest 247 284 8,000 -387 Level Indianapolis Center
Wed 11:31:32 AM 39.7175 -86.1108 90° East 234 269 7,200 -968 Descending Indianapolis Center
Wed 11:32:34 AM 39.7725 -86.0750 27° Northeast 228 262 6,000 -1,258 Descending Indianapolis Center
Wed 11:33:00 AM 39.7173 -86.2947 155° Southeast  Level Estimated
Wed 11:33:36 AM 39.8383 -86.0650 North 233 268 4,600  Level Indianapolis Center
Wed 11:34:37 AM 39.8536 -86.1317 287° West 232 267 3,300 -927 Descending Indianapolis Center
Wed 11:35:39 AM 39.8100 -86.1881 225° Southwest 227 261 2,700 -581 Descending Indianapolis Center
Wed 11:36:41 AM 39.7742 -86.2339 225° Southwest 202 232 2,100 -629 Descending Indianapolis Center
Wed 11:37:43 AM 39.7472 -86.2681 224° Southwest 164 189 1,400 -581 Descending Indianapolis Center
Wed 11:38:45 AM 39.7233 -86.2992 225° Southwest 147 169 900 -484 Descending Indianapolis Center
Wed 11:40:00 AM 39.7173 -86.2947 90° East  Level Estimated
Wed 11:43:00 AM 39.7167 -86.2833 90° East  Level FlightAware Approximate

Login

Don't have an account? Register now (free) for customized features, flight alerts, and more!